sensor_id;sensor_type;location;lat;lon;timestamp;P1;durP1;ratioP1;P2;durP2;ratioP2
66603;SDS011;53460;39.612;8.822;2022-07-21T00:01:20;1.55;;;1.45;;
66603;SDS011;53460;39.612;8.822;2022-07-21T00:03:45;2.28;;;1.50;;
66603;SDS011;53460;39.612;8.822;2022-07-21T00:06:11;5.82;;;1.52;;
66603;SDS011;53460;39.612;8.822;2022-07-21T00:08:37;5.78;;;1.77;;
66603;SDS011;53460;39.612;8.822;2022-07-21T00:11:02;1.83;;;1.50;;
66603;SDS011;53460;39.612;8.822;2022-07-21T00:13:28;4.25;;;1.42;;
66603;SDS011;53460;39.612;8.822;2022-07-21T00:15:54;6.13;;;1.95;;
66603;SDS011;53460;39.612;8.822;2022-07-21T00:18:20;4.05;;;1.70;;
66603;SDS011;53460;39.612;8.822;2022-07-21T00:20:46;3.55;;;1.58;;
66603;SDS011;53460;39.612;8.822;2022-07-21T00:23:12;2.05;;;1.50;;
66603;SDS011;53460;39.612;8.822;2022-07-21T00:25:38;4.93;;;1.67;;
66603;SDS011;53460;39.612;8.822;2022-07-21T00:28:04;5.60;;;1.77;;
66603;SDS011;53460;39.612;8.822;2022-07-21T00:30:30;4.47;;;1.60;;
66603;SDS011;53460;39.612;8.822;2022-07-21T00:32:56;4.32;;;1.80;;
66603;SDS011;53460;39.612;8.822;2022-07-21T00:35:21;1.95;;;1.50;;
66603;SDS011;53460;39.612;8.822;2022-07-21T00:37:47;5.00;;;1.77;;
66603;SDS011;53460;39.612;8.822;2022-07-21T00:40:13;3.20;;;1.70;;
66603;SDS011;53460;39.612;8.822;2022-07-21T00:42:39;2.55;;;1.60;;
66603;SDS011;53460;39.612;8.822;2022-07-21T00:45:06;2.30;;;1.75;;
66603;SDS011;53460;39.612;8.822;2022-07-21T00:47:33;5.18;;;1.50;;
66603;SDS011;53460;39.612;8.822;2022-07-21T00:49:59;2.63;;;1.50;;
66603;SDS011;53460;39.612;8.822;2022-07-21T00:52:28;2.72;;;1.58;;
66603;SDS011;53460;39.612;8.822;2022-07-21T00:54:54;4.53;;;2.03;;
66603;SDS011;53460;39.612;8.822;2022-07-21T00:57:19;1.83;;;1.48;;
66603;SDS011;53460;39.612;8.822;2022-07-21T00:59:45;2.28;;;1.80;;
66603;SDS011;53460;39.612;8.822;2022-07-21T01:02:11;3.92;;;1.90;;
66603;SDS011;53460;39.612;8.822;2022-07-21T01:04:37;2.70;;;1.80;;
66603;SDS011;53460;39.612;8.822;2022-07-21T01:07:04;6.28;;;1.92;;
66603;SDS011;53460;39.612;8.822;2022-07-21T01:09:31;2.50;;;1.70;;
66603;SDS011;53460;39.612;8.822;2022-07-21T01:11:58;3.95;;;1.80;;
66603;SDS011;53460;39.612;8.822;2022-07-21T01:14:24;9.07;;;2.05;;
66603;SDS011;53460;39.612;8.822;2022-07-21T01:16:50;3.35;;;1.80;;
66603;SDS011;53460;39.612;8.822;2022-07-21T01:19:16;2.55;;;2.00;;
66603;SDS011;53460;39.612;8.822;2022-07-21T01:21:43;3.22;;;1.58;;
66603;SDS011;53460;39.612;8.822;2022-07-21T01:24:10;5.28;;;1.70;;
66603;SDS011;53460;39.612;8.822;2022-07-21T01:26:46;3.78;;;1.70;;
66603;SDS011;53460;39.612;8.822;2022-07-21T01:29:14;6.43;;;1.60;;
66603;SDS011;53460;39.612;8.822;2022-07-21T01:31:41;3.70;;;1.80;;
66603;SDS011;53460;39.612;8.822;2022-07-21T01:34:09;4.82;;;1.50;;
66603;SDS011;53460;39.612;8.822;2022-07-21T01:36:35;2.75;;;1.75;;
66603;SDS011;53460;39.612;8.822;2022-07-21T01:39:00;2.80;;;1.80;;
66603;SDS011;53460;39.612;8.822;2022-07-21T01:41:46;5.00;;;2.10;;
66603;SDS011;53460;39.612;8.822;2022-07-21T01:44:12;10.10;;;5.60;;
66603;SDS011;53460;39.612;8.822;2022-07-21T01:46:46;14.07;;;5.50;;
66603;SDS011;53460;39.612;8.822;2022-07-21T01:49:14;8.98;;;5.78;;
66603;SDS011;53460;39.612;8.822;2022-07-21T01:51:41;13.10;;;7.72;;
66603;SDS011;53460;39.612;8.822;2022-07-21T01:54:07;8.27;;;5.82;;
66603;SDS011;53460;39.612;8.822;2022-07-21T01:56:35;7.30;;;4.07;;
66603;SDS011;53460;39.612;8.822;2022-07-21T01:59:01;7.38;;;3.95;;
66603;SDS011;53460;39.612;8.822;2022-07-21T02:01:28;7.50;;;2.63;;
66603;SDS011;53460;39.612;8.822;2022-07-21T02:03:55;4.32;;;3.03;;
66603;SDS011;53460;39.612;8.822;2022-07-21T02:06:23;6.38;;;2.70;;
66603;SDS011;53460;39.612;8.822;2022-07-21T02:08:49;3.38;;;2.10;;
66603;SDS011;53460;39.612;8.822;2022-07-21T02:11:15;4.38;;;1.98;;
66603;SDS011;53460;39.612;8.822;2022-07-21T02:13:41;4.32;;;2.00;;
66603;SDS011;53460;39.612;8.822;2022-07-21T02:16:07;4.28;;;1.75;;
66603;SDS011;53460;39.612;8.822;2022-07-21T02:18:33;4.85;;;2.10;;
66603;SDS011;53460;39.612;8.822;2022-07-21T02:21:00;3.28;;;1.80;;
66603;SDS011;53460;39.612;8.822;2022-07-21T02:23:26;1.90;;;1.70;;
66603;SDS011;53460;39.612;8.822;2022-07-21T02:25:51;3.85;;;1.60;;
66603;SDS011;53460;39.612;8.822;2022-07-21T02:28:18;3.55;;;1.83;;
66603;SDS011;53460;39.612;8.822;2022-07-21T02:30:45;3.50;;;1.70;;
66603;SDS011;53460;39.612;8.822;2022-07-21T02:33:11;2.20;;;2.00;;
66603;SDS011;53460;39.612;8.822;2022-07-21T02:35:37;27.65;;;13.32;;
66603;SDS011;53460;39.612;8.822;2022-07-21T02:38:04;24.58;;;10.80;;
66603;SDS011;53460;39.612;8.822;2022-07-21T02:40:29;12.27;;;6.72;;
66603;SDS011;53460;39.612;8.822;2022-07-21T02:42:56;10.18;;;4.82;;
66603;SDS011;53460;39.612;8.822;2022-07-21T02:45:21;8.55;;;3.45;;
66603;SDS011;53460;39.612;8.822;2022-07-21T02:50:21;2.97;;;2.15;;
66603;SDS011;53460;39.612;8.822;2022-07-21T02:52:48;3.60;;;1.98;;
66603;SDS011;53460;39.612;8.822;2022-07-21T02:55:15;8.32;;;2.28;;
66603;SDS011;53460;39.612;8.822;2022-07-21T02:57:41;4.95;;;1.80;;
66603;SDS011;53460;39.612;8.822;2022-07-21T03:00:07;3.17;;;1.90;;
66603;SDS011;53460;39.612;8.822;2022-07-21T03:02:35;4.57;;;2.60;;
66603;SDS011;53460;39.612;8.822;2022-07-21T03:05:01;4.65;;;2.40;;
66603;SDS011;53460;39.612;8.822;2022-07-21T03:07:29;6.38;;;2.60;;
66603;SDS011;53460;39.612;8.822;2022-07-21T03:09:55;3.85;;;1.85;;
66603;SDS011;53460;39.612;8.822;2022-07-21T03:12:20;3.88;;;1.90;;
66603;SDS011;53460;39.612;8.822;2022-07-21T03:14:46;6.07;;;2.45;;
66603;SDS011;53460;39.612;8.822;2022-07-21T03:17:12;3.38;;;2.25;;
66603;SDS011;53460;39.612;8.822;2022-07-21T03:19:38;2.90;;;1.80;;
66603;SDS011;53460;39.612;8.822;2022-07-21T03:22:03;5.53;;;1.88;;
66603;SDS011;53460;39.612;8.822;2022-07-21T03:24:29;6.55;;;2.10;;
66603;SDS011;53460;39.612;8.822;2022-07-21T03:26:55;4.07;;;1.80;;
66603;SDS011;53460;39.612;8.822;2022-07-21T03:29:21;2.38;;;1.85;;
66603;SDS011;53460;39.612;8.822;2022-07-21T03:31:47;11.43;;;2.47;;
66603;SDS011;53460;39.612;8.822;2022-07-21T03:34:12;4.20;;;2.30;;
66603;SDS011;53460;39.612;8.822;2022-07-21T03:36:38;4.32;;;2.00;;
66603;SDS011;53460;39.612;8.822;2022-07-21T03:39:04;6.70;;;2.20;;
66603;SDS011;53460;39.612;8.822;2022-07-21T03:41:29;5.13;;;2.95;;
66603;SDS011;53460;39.612;8.822;2022-07-21T03:43:55;4.78;;;2.00;;
66603;SDS011;53460;39.612;8.822;2022-07-21T03:46:21;5.57;;;1.98;;
66603;SDS011;53460;39.612;8.822;2022-07-21T03:48:46;3.30;;;1.98;;
66603;SDS011;53460;39.612;8.822;2022-07-21T03:51:12;5.03;;;2.20;;
66603;SDS011;53460;39.612;8.822;2022-07-21T03:53:37;3.28;;;2.17;;
66603;SDS011;53460;39.612;8.822;2022-07-21T03:56:03;2.15;;;1.90;;
66603;SDS011;53460;39.612;8.822;2022-07-21T03:58:29;5.18;;;2.10;;
66603;SDS011;53460;39.612;8.822;2022-07-21T04:00:55;16.38;;;2.38;;
66603;SDS011;53460;39.612;8.822;2022-07-21T04:03:20;5.97;;;2.53;;
66603;SDS011;53460;39.612;8.822;2022-07-21T04:05:46;3.72;;;2.67;;
66603;SDS011;53460;39.612;8.822;2022-07-21T04:08:12;3.17;;;2.85;;
66603;SDS011;53460;39.612;8.822;2022-07-21T04:10:39;6.43;;;2.60;;
66603;SDS011;53460;39.612;8.822;2022-07-21T04:13:07;2.67;;;2.08;;
66603;SDS011;53460;39.612;8.822;2022-07-21T04:15:35;2.58;;;2.38;;
66603;SDS011;53460;39.612;8.822;2022-07-21T04:18:01;3.33;;;2.03;;
66603;SDS011;53460;39.612;8.822;2022-07-21T04:20:27;7.60;;;2.40;;
66603;SDS011;53460;39.612;8.822;2022-07-21T04:22:53;3.72;;;1.90;;
66603;SDS011;53460;39.612;8.822;2022-07-21T04:25:19;5.60;;;1.90;;
66603;SDS011;53460;39.612;8.822;2022-07-21T04:27:45;3.08;;;1.88;;
66603;SDS011;53460;39.612;8.822;2022-07-21T04:30:13;6.50;;;2.70;;
66603;SDS011;53460;39.612;8.822;2022-07-21T04:32:40;19.80;;;3.13;;
66603;SDS011;53460;39.612;8.822;2022-07-21T04:35:07;12.55;;;3.85;;
66603;SDS011;53460;39.612;8.822;2022-07-21T04:37:33;14.60;;;5.30;;
66603;SDS011;53460;39.612;8.822;2022-07-21T04:40:00;15.80;;;6.05;;
66603;SDS011;53460;39.612;8.822;2022-07-21T04:42:26;9.88;;;6.47;;
66603;SDS011;53460;39.612;8.822;2022-07-21T04:44:52;12.48;;;9.27;;
66603;SDS011;53460;39.612;8.822;2022-07-21T04:47:17;23.77;;;11.80;;
66603;SDS011;53460;39.612;8.822;2022-07-21T04:49:43;21.45;;;9.90;;
66603;SDS011;53460;39.612;8.822;2022-07-21T04:52:09;10.88;;;7.38;;
66603;SDS011;53460;39.612;8.822;2022-07-21T04:54:35;10.85;;;3.90;;
66603;SDS011;53460;39.612;8.822;2022-07-21T04:57:00;9.75;;;3.95;;
66603;SDS011;53460;39.612;8.822;2022-07-21T04:59:29;7.97;;;3.00;;
66603;SDS011;53460;39.612;8.822;2022-07-21T05:01:55;3.97;;;2.47;;
66603;SDS011;53460;39.612;8.822;2022-07-21T05:04:21;8.55;;;2.33;;
66603;SDS011;53460;39.612;8.822;2022-07-21T05:06:47;6.10;;;2.40;;
66603;SDS011;53460;39.612;8.822;2022-07-21T05:09:13;5.22;;;2.42;;
66603;SDS011;53460;39.612;8.822;2022-07-21T05:11:39;3.85;;;1.80;;
66603;SDS011;53460;39.612;8.822;2022-07-21T05:14:05;2.83;;;2.03;;
66603;SDS011;53460;39.612;8.822;2022-07-21T05:16:30;3.20;;;2.00;;
66603;SDS011;53460;39.612;8.822;2022-07-21T05:18:56;15.73;;;2.53;;
66603;SDS011;53460;39.612;8.822;2022-07-21T05:21:22;11.23;;;2.35;;
66603;SDS011;53460;39.612;8.822;2022-07-21T05:23:47;6.47;;;2.47;;
66603;SDS011;53460;39.612;8.822;2022-07-21T05:26:13;6.35;;;2.05;;
66603;SDS011;53460;39.612;8.822;2022-07-21T05:28:39;7.43;;;2.10;;
66603;SDS011;53460;39.612;8.822;2022-07-21T05:31:06;2.92;;;2.20;;
66603;SDS011;53460;39.612;8.822;2022-07-21T05:33:32;7.88;;;2.28;;
66603;SDS011;53460;39.612;8.822;2022-07-21T05:35:58;7.22;;;2.15;;
66603;SDS011;53460;39.612;8.822;2022-07-21T05:38:23;6.32;;;2.30;;
66603;SDS011;53460;39.612;8.822;2022-07-21T05:40:49;8.15;;;1.85;;
66603;SDS011;53460;39.612;8.822;2022-07-21T05:43:14;7.68;;;2.42;;
66603;SDS011;53460;39.612;8.822;2022-07-21T05:45:40;11.25;;;2.50;;
66603;SDS011;53460;39.612;8.822;2022-07-21T05:48:06;8.55;;;2.40;;
66603;SDS011;53460;39.612;8.822;2022-07-21T05:50:32;5.57;;;1.98;;
66603;SDS011;53460;39.612;8.822;2022-07-21T05:52:57;6.85;;;1.85;;
66603;SDS011;53460;39.612;8.822;2022-07-21T05:55:23;4.20;;;2.13;;
66603;SDS011;53460;39.612;8.822;2022-07-21T05:57:49;4.85;;;1.67;;
66603;SDS011;53460;39.612;8.822;2022-07-21T06:00:15;5.13;;;1.67;;
66603;SDS011;53460;39.612;8.822;2022-07-21T06:02:42;9.00;;;2.40;;
66603;SDS011;53460;39.612;8.822;2022-07-21T06:05:09;5.80;;;1.90;;
66603;SDS011;53460;39.612;8.822;2022-07-21T06:07:36;4.50;;;2.00;;
66603;SDS011;53460;39.612;8.822;2022-07-21T06:10:03;4.28;;;1.73;;
66603;SDS011;53460;39.612;8.822;2022-07-21T06:12:28;9.18;;;1.90;;
66603;SDS011;53460;39.612;8.822;2022-07-21T06:14:54;4.05;;;1.70;;
66603;SDS011;53460;39.612;8.822;2022-07-21T06:17:20;6.20;;;1.85;;
66603;SDS011;53460;39.612;8.822;2022-07-21T06:19:47;4.88;;;2.00;;
66603;SDS011;53460;39.612;8.822;2022-07-21T06:22:12;4.45;;;1.90;;
66603;SDS011;53460;39.612;8.822;2022-07-21T06:24:38;2.25;;;1.77;;
66603;SDS011;53460;39.612;8.822;2022-07-21T06:27:04;2.90;;;1.77;;
66603;SDS011;53460;39.612;8.822;2022-07-21T06:29:29;2.45;;;2.25;;
66603;SDS011;53460;39.612;8.822;2022-07-21T06:31:55;4.70;;;2.38;;
66603;SDS011;53460;39.612;8.822;2022-07-21T06:34:21;2.60;;;1.90;;
66603;SDS011;53460;39.612;8.822;2022-07-21T06:36:46;5.55;;;2.00;;
66603;SDS011;53460;39.612;8.822;2022-07-21T06:39:12;4.35;;;1.70;;
66603;SDS011;53460;39.612;8.822;2022-07-21T06:41:38;7.47;;;1.98;;
66603;SDS011;53460;39.612;8.822;2022-07-21T06:44:11;5.28;;;2.58;;
66603;SDS011;53460;39.612;8.822;2022-07-21T06:46:37;3.92;;;1.90;;
66603;SDS011;53460;39.612;8.822;2022-07-21T06:49:02;10.02;;;2.13;;
66603;SDS011;53460;39.612;8.822;2022-07-21T06:51:28;14.45;;;2.92;;
66603;SDS011;53460;39.612;8.822;2022-07-21T06:53:54;17.42;;;2.75;;
66603;SDS011;53460;39.612;8.822;2022-07-21T06:56:20;4.35;;;2.00;;
66603;SDS011;53460;39.612;8.822;2022-07-21T06:58:47;8.93;;;2.03;;
66603;SDS011;53460;39.612;8.822;2022-07-21T07:01:13;20.95;;;1.90;;
66603;SDS011;53460;39.612;8.822;2022-07-21T07:03:42;4.28;;;1.80;;
66603;SDS011;53460;39.612;8.822;2022-07-21T07:06:08;8.13;;;3.85;;
66603;SDS011;53460;39.612;8.822;2022-07-21T07:08:34;10.40;;;2.30;;
66603;SDS011;53460;39.612;8.822;2022-07-21T07:11:00;4.80;;;2.00;;
66603;SDS011;53460;39.612;8.822;2022-07-21T07:13:25;6.38;;;1.60;;
66603;SDS011;53460;39.612;8.822;2022-07-21T07:15:51;2.30;;;1.67;;
66603;SDS011;53460;39.612;8.822;2022-07-21T07:18:17;5.18;;;1.90;;
66603;SDS011;53460;39.612;8.822;2022-07-21T07:20:45;8.93;;;2.00;;
66603;SDS011;53460;39.612;8.822;2022-07-21T07:23:11;10.30;;;2.42;;
66603;SDS011;53460;39.612;8.822;2022-07-21T07:25:37;5.50;;;1.60;;
66603;SDS011;53460;39.612;8.822;2022-07-21T07:28:03;7.50;;;1.30;;
66603;SDS011;53460;39.612;8.822;2022-07-21T07:30:30;12.07;;;2.53;;
66603;SDS011;53460;39.612;8.822;2022-07-21T07:32:56;3.45;;;1.60;;
66603;SDS011;53460;39.612;8.822;2022-07-21T07:35:22;3.53;;;1.33;;
66603;SDS011;53460;39.612;8.822;2022-07-21T07:37:48;3.47;;;1.60;;
66603;SDS011;53460;39.612;8.822;2022-07-21T07:40:16;2.90;;;1.60;;
66603;SDS011;53460;39.612;8.822;2022-07-21T07:42:44;4.45;;;1.50;;
66603;SDS011;53460;39.612;8.822;2022-07-21T07:45:10;4.28;;;1.30;;
66603;SDS011;53460;39.612;8.822;2022-07-21T07:47:37;1.65;;;1.55;;
66603;SDS011;53460;39.612;8.822;2022-07-21T07:50:06;4.40;;;2.10;;
66603;SDS011;53460;39.612;8.822;2022-07-21T07:52:36;5.60;;;1.67;;
66603;SDS011;53460;39.612;8.822;2022-07-21T07:55:03;2.42;;;1.15;;
66603;SDS011;53460;39.612;8.822;2022-07-21T07:57:33;2.95;;;1.33;;
66603;SDS011;53460;39.612;8.822;2022-07-21T07:59:59;2.45;;;1.13;;
66603;SDS011;53460;39.612;8.822;2022-07-21T08:02:25;1.42;;;1.05;;
66603;SDS011;53460;39.612;8.822;2022-07-21T08:04:51;2.75;;;1.20;;
66603;SDS011;53460;39.612;8.822;2022-07-21T08:07:16;1.52;;;1.20;;
66603;SDS011;53460;39.612;8.822;2022-07-21T08:09:42;2.75;;;1.20;;
66603;SDS011;53460;39.612;8.822;2022-07-21T08:12:08;1.25;;;1.10;;
66603;SDS011;53460;39.612;8.822;2022-07-21T08:14:33;1.33;;;1.15;;
66603;SDS011;53460;39.612;8.822;2022-07-21T08:16:59;1.38;;;1.20;;
66603;SDS011;53460;39.612;8.822;2022-07-21T08:19:25;2.22;;;1.20;;
66603;SDS011;53460;39.612;8.822;2022-07-21T08:21:52;3.17;;;1.30;;
66603;SDS011;53460;39.612;8.822;2022-07-21T08:24:18;1.40;;;1.00;;
66603;SDS011;53460;39.612;8.822;2022-07-21T08:26:44;1.42;;;0.90;;
66603;SDS011;53460;39.612;8.822;2022-07-21T08:29:10;1.75;;;1.20;;
66603;SDS011;53460;39.612;8.822;2022-07-21T08:31:36;4.95;;;1.13;;
66603;SDS011;53460;39.612;8.822;2022-07-21T08:34:01;1.23;;;1.02;;
66603;SDS011;53460;39.612;8.822;2022-07-21T08:36:27;2.40;;;1.20;;
66603;SDS011;53460;39.612;8.822;2022-07-21T08:38:53;1.13;;;1.00;;
66603;SDS011;53460;39.612;8.822;2022-07-21T08:41:18;2.13;;;1.10;;
66603;SDS011;53460;39.612;8.822;2022-07-21T08:43:44;2.53;;;1.10;;
66603;SDS011;53460;39.612;8.822;2022-07-21T08:46:10;4.90;;;1.10;;
66603;SDS011;53460;39.612;8.822;2022-07-21T08:48:36;1.02;;;0.98;;
66603;SDS011;53460;39.612;8.822;2022-07-21T08:51:02;2.70;;;1.13;;
66603;SDS011;53460;39.612;8.822;2022-07-21T08:53:28;1.95;;;1.20;;
66603;SDS011;53460;39.612;8.822;2022-07-21T08:55:54;3.75;;;1.15;;
66603;SDS011;53460;39.612;8.822;2022-07-21T08:58:20;1.65;;;1.00;;
66603;SDS011;53460;39.612;8.822;2022-07-21T09:00:47;3.22;;;1.27;;
66603;SDS011;53460;39.612;8.822;2022-07-21T09:03:21;1.17;;;1.00;;
66603;SDS011;53460;39.612;8.822;2022-07-21T09:08:44;2.60;;;1.17;;
66603;SDS011;53460;39.612;8.822;2022-07-21T09:13:47;1.85;;;1.20;;
66603;SDS011;53460;39.612;8.822;2022-07-21T09:16:36;4.57;;;1.05;;
66603;SDS011;53460;39.612;8.822;2022-07-21T09:19:05;4.10;;;0.98;;
66603;SDS011;53460;39.612;8.822;2022-07-21T09:21:34;3.10;;;1.45;;
66603;SDS011;53460;39.612;8.822;2022-07-21T09:24:14;1.48;;;1.10;;
66603;SDS011;53460;39.612;8.822;2022-07-21T09:29:25;4.07;;;1.10;;
66603;SDS011;53460;39.612;8.822;2022-07-21T09:31:51;3.60;;;1.40;;
66603;SDS011;53460;39.612;8.822;2022-07-21T09:34:16;3.17;;;1.10;;
66603;SDS011;53460;39.612;8.822;2022-07-21T09:36:56;2.45;;;1.73;;
66603;SDS011;53460;39.612;8.822;2022-07-21T09:44:55;2.10;;;0.98;;
66603;SDS011;53460;39.612;8.822;2022-07-21T09:47:26;2.03;;;1.25;;
66603;SDS011;53460;39.612;8.822;2022-07-21T09:49:53;2.55;;;1.10;;
66603;SDS011;53460;39.612;8.822;2022-07-21T09:54:51;2.58;;;1.10;;
66603;SDS011;53460;39.612;8.822;2022-07-21T09:57:17;7.60;;;1.90;;
66603;SDS011;53460;39.612;8.822;2022-07-21T09:59:45;6.43;;;1.45;;
66603;SDS011;53460;39.612;8.822;2022-07-21T10:02:22;4.93;;;1.35;;
66603;SDS011;53460;39.612;8.822;2022-07-21T10:07:33;6.35;;;1.20;;
66603;SDS011;53460;39.612;8.822;2022-07-21T10:10:01;1.50;;;1.20;;
66603;SDS011;53460;39.612;8.822;2022-07-21T10:12:27;4.47;;;1.13;;
66603;SDS011;53460;39.612;8.822;2022-07-21T10:14:53;6.03;;;1.40;;
66603;SDS011;53460;39.612;8.822;2022-07-21T10:17:20;2.55;;;1.23;;
66603;SDS011;53460;39.612;8.822;2022-07-21T10:19:57;2.03;;;1.20;;
66603;SDS011;53460;39.612;8.822;2022-07-21T10:25:02;2.63;;;1.48;;
66603;SDS011;53460;39.612;8.822;2022-07-21T10:27:28;2.33;;;1.17;;
66603;SDS011;53460;39.612;8.822;2022-07-21T10:29:58;1.88;;;1.20;;
66603;SDS011;53460;39.612;8.822;2022-07-21T10:32:33;1.73;;;0.98;;
66603;SDS011;53460;39.612;8.822;2022-07-21T10:35:02;3.33;;;1.10;;
66603;SDS011;53460;39.612;8.822;2022-07-21T10:37:48;4.07;;;1.30;;
66603;SDS011;53460;39.612;8.822;2022-07-21T10:45:32;4.93;;;1.73;;
66603;SDS011;53460;39.612;8.822;2022-07-21T10:48:06;4.10;;;1.20;;
66603;SDS011;53460;39.612;8.822;2022-07-21T10:50:34;1.77;;;1.27;;
66603;SDS011;53460;39.612;8.822;2022-07-21T10:53:03;2.53;;;1.27;;
66603;SDS011;53460;39.612;8.822;2022-07-21T10:55:31;2.97;;;1.10;;
66603;SDS011;53460;39.612;8.822;2022-07-21T10:58:45;2.78;;;1.17;;
66603;SDS011;53460;39.612;8.822;2022-07-21T11:00:59;2.63;;;1.33;;
66603;SDS011;53460;39.612;8.822;2022-07-21T11:03:41;3.22;;;1.25;;
66603;SDS011;53460;39.612;8.822;2022-07-21T11:08:47;2.42;;;1.20;;
66603;SDS011;53460;39.612;8.822;2022-07-21T11:11:21;1.58;;;1.10;;
66603;SDS011;53460;39.612;8.822;2022-07-21T11:14:03;3.60;;;1.40;;
66603;SDS011;53460;39.612;8.822;2022-07-21T11:19:28;4.40;;;1.10;;
66603;SDS011;53460;39.612;8.822;2022-07-21T11:21:53;1.80;;;1.00;;
66603;SDS011;53460;39.612;8.822;2022-07-21T11:24:20;3.25;;;1.10;;
66603;SDS011;53460;39.612;8.822;2022-07-21T11:29:52;2.42;;;0.90;;
66603;SDS011;53460;39.612;8.822;2022-07-21T11:32:19;1.90;;;0.93;;
66603;SDS011;53460;39.612;8.822;2022-07-21T11:34:49;4.47;;;1.23;;
66603;SDS011;53460;39.612;8.822;2022-07-21T11:40:05;2.25;;;0.90;;
66603;SDS011;53460;39.612;8.822;2022-07-21T11:42:33;2.78;;;1.08;;
66603;SDS011;53460;39.612;8.822;2022-07-21T11:44:59;1.00;;;0.90;;
66603;SDS011;53460;39.612;8.822;2022-07-21T11:47:25;11.93;;;1.42;;
66603;SDS011;53460;39.612;8.822;2022-07-21T11:49:54;4.25;;;1.10;;
66603;SDS011;53460;39.612;8.822;2022-07-21T11:52:32;3.67;;;1.10;;
66603;SDS011;53460;39.612;8.822;2022-07-21T11:55:00;1.23;;;0.95;;
66603;SDS011;53460;39.612;8.822;2022-07-21T11:57:28;2.85;;;1.20;;
66603;SDS011;53460;39.612;8.822;2022-07-21T11:59:54;2.55;;;0.80;;
66603;SDS011;53460;39.612;8.822;2022-07-21T12:02:22;1.13;;;0.80;;
66603;SDS011;53460;39.612;8.822;2022-07-21T12:04:50;1.75;;;0.90;;
66603;SDS011;53460;39.612;8.822;2022-07-21T12:07:18;1.60;;;0.88;;
66603;SDS011;53460;39.612;8.822;2022-07-21T12:09:45;3.00;;;0.90;;
66603;SDS011;53460;39.612;8.822;2022-07-21T12:12:13;1.08;;;0.90;;
66603;SDS011;53460;39.612;8.822;2022-07-21T12:17:05;3.75;;;1.13;;
66603;SDS011;53460;39.612;8.822;2022-07-21T12:19:31;4.57;;;0.80;;
66603;SDS011;53460;39.612;8.822;2022-07-21T12:21:57;2.80;;;0.75;;
66603;SDS011;53460;39.612;8.822;2022-07-21T12:24:23;1.42;;;0.90;;
66603;SDS011;53460;39.612;8.822;2022-07-21T12:27:19;2.70;;;0.75;;
66603;SDS011;53460;39.612;8.822;2022-07-21T12:29:45;2.20;;;0.90;;
66603;SDS011;53460;39.612;8.822;2022-07-21T12:32:12;1.67;;;0.73;;
66603;SDS011;53460;39.612;8.822;2022-07-21T12:34:48;4.45;;;1.00;;
66603;SDS011;53460;39.612;8.822;2022-07-21T12:37:15;3.95;;;0.80;;
66603;SDS011;53460;39.612;8.822;2022-07-21T12:39:41;2.00;;;0.80;;
66603;SDS011;53460;39.612;8.822;2022-07-21T12:42:29;2.95;;;1.00;;
66603;SDS011;53460;39.612;8.822;2022-07-21T12:45:11;0.70;;;0.70;;
66603;SDS011;53460;39.612;8.822;2022-07-21T12:47:41;2.67;;;0.68;;
66603;SDS011;53460;39.612;8.822;2022-07-21T12:50:08;2.75;;;1.02;;
66603;SDS011;53460;39.612;8.822;2022-07-21T12:52:39;3.83;;;0.85;;
66603;SDS011;53460;39.612;8.822;2022-07-21T12:55:06;3.95;;;0.88;;
66603;SDS011;53460;39.612;8.822;2022-07-21T12:57:33;3.30;;;1.13;;
66603;SDS011;53460;39.612;8.822;2022-07-21T12:59:59;1.70;;;0.90;;
66603;SDS011;53460;39.612;8.822;2022-07-21T13:02:25;5.07;;;0.98;;
66603;SDS011;53460;39.612;8.822;2022-07-21T13:04:52;1.00;;;0.80;;
66603;SDS011;53460;39.612;8.822;2022-07-21T13:07:18;2.92;;;1.05;;
66603;SDS011;53460;39.612;8.822;2022-07-21T13:09:44;2.58;;;1.25;;
66603;SDS011;53460;39.612;8.822;2022-07-21T13:12:13;3.42;;;1.10;;
66603;SDS011;53460;39.612;8.822;2022-07-21T13:14:40;2.00;;;0.90;;
66603;SDS011;53460;39.612;8.822;2022-07-21T13:17:06;2.10;;;0.73;;
66603;SDS011;53460;39.612;8.822;2022-07-21T13:19:33;0.90;;;0.80;;
66603;SDS011;53460;39.612;8.822;2022-07-21T13:22:01;3.03;;;0.88;;
66603;SDS011;53460;39.612;8.822;2022-07-21T13:24:28;3.25;;;1.30;;
66603;SDS011;53460;39.612;8.822;2022-07-21T13:26:54;1.48;;;0.82;;
66603;SDS011;53460;39.612;8.822;2022-07-21T13:29:19;3.53;;;1.10;;
66603;SDS011;53460;39.612;8.822;2022-07-21T13:31:45;1.25;;;0.90;;
66603;SDS011;53460;39.612;8.822;2022-07-21T13:34:11;1.95;;;0.90;;
66603;SDS011;53460;39.612;8.822;2022-07-21T13:36:37;2.30;;;1.00;;
66603;SDS011;53460;39.612;8.822;2022-07-21T13:39:06;2.20;;;0.90;;
66603;SDS011;53460;39.612;8.822;2022-07-21T13:41:32;2.17;;;0.70;;
66603;SDS011;53460;39.612;8.822;2022-07-21T13:43:59;6.55;;;0.90;;
66603;SDS011;53460;39.612;8.822;2022-07-21T13:46:25;6.28;;;1.00;;
66603;SDS011;53460;39.612;8.822;2022-07-21T13:48:51;4.13;;;1.23;;
66603;SDS011;53460;39.612;8.822;2022-07-21T13:51:18;4.50;;;0.90;;
66603;SDS011;53460;39.612;8.822;2022-07-21T13:53:45;1.00;;;0.70;;
66603;SDS011;53460;39.612;8.822;2022-07-21T13:56:12;1.60;;;0.90;;
66603;SDS011;53460;39.612;8.822;2022-07-21T13:58:39;0.80;;;0.80;;
66603;SDS011;53460;39.612;8.822;2022-07-21T14:01:06;2.47;;;0.90;;
66603;SDS011;53460;39.612;8.822;2022-07-21T14:03:33;1.08;;;0.98;;
66603;SDS011;53460;39.612;8.822;2022-07-21T14:06:00;0.82;;;0.82;;
66603;SDS011;53460;39.612;8.822;2022-07-21T14:08:26;5.82;;;1.10;;
66603;SDS011;53460;39.612;8.822;2022-07-21T14:10:52;1.48;;;0.80;;
66603;SDS011;53460;39.612;8.822;2022-07-21T14:13:18;2.40;;;0.90;;
66603;SDS011;53460;39.612;8.822;2022-07-21T14:15:44;1.63;;;0.80;;
66603;SDS011;53460;39.612;8.822;2022-07-21T14:18:09;2.00;;;0.90;;
66603;SDS011;53460;39.612;8.822;2022-07-21T14:20:35;2.88;;;0.88;;
66603;SDS011;53460;39.612;8.822;2022-07-21T14:23:01;3.08;;;1.23;;
66603;SDS011;53460;39.612;8.822;2022-07-21T14:25:26;1.13;;;0.80;;
66603;SDS011;53460;39.612;8.822;2022-07-21T14:27:54;5.53;;;1.00;;
66603;SDS011;53460;39.612;8.822;2022-07-21T14:30:21;0.88;;;0.80;;
66603;SDS011;53460;39.612;8.822;2022-07-21T14:32:49;2.22;;;1.00;;
66603;SDS011;53460;39.612;8.822;2022-07-21T14:35:15;1.65;;;0.85;;
66603;SDS011;53460;39.612;8.822;2022-07-21T14:37:44;1.85;;;1.02;;
66603;SDS011;53460;39.612;8.822;2022-07-21T14:40:11;3.08;;;1.00;;
66603;SDS011;53460;39.612;8.822;2022-07-21T14:42:37;2.35;;;0.93;;
66603;SDS011;53460;39.612;8.822;2022-07-21T14:45:04;1.83;;;0.98;;
66603;SDS011;53460;39.612;8.822;2022-07-21T14:47:30;0.85;;;0.70;;
66603;SDS011;53460;39.612;8.822;2022-07-21T14:49:56;3.85;;;1.00;;
66603;SDS011;53460;39.612;8.822;2022-07-21T14:52:22;4.97;;;0.90;;
66603;SDS011;53460;39.612;8.822;2022-07-21T14:54:48;1.52;;;1.00;;
66603;SDS011;53460;39.612;8.822;2022-07-21T14:57:14;1.42;;;0.88;;
66603;SDS011;53460;39.612;8.822;2022-07-21T14:59:39;1.33;;;0.88;;
66603;SDS011;53460;39.612;8.822;2022-07-21T15:02:05;2.88;;;1.23;;
66603;SDS011;53460;39.612;8.822;2022-07-21T15:04:31;2.20;;;0.82;;
66603;SDS011;53460;39.612;8.822;2022-07-21T15:06:57;2.83;;;1.17;;
66603;SDS011;53460;39.612;8.822;2022-07-21T15:09:22;1.10;;;0.90;;
66603;SDS011;53460;39.612;8.822;2022-07-21T15:11:48;1.42;;;0.90;;
66603;SDS011;53460;39.612;8.822;2022-07-21T15:14:14;3.30;;;1.20;;
66603;SDS011;53460;39.612;8.822;2022-07-21T15:16:40;2.35;;;1.00;;
66603;SDS011;53460;39.612;8.822;2022-07-21T15:19:05;3.22;;;0.75;;
66603;SDS011;53460;39.612;8.822;2022-07-21T15:21:31;1.20;;;0.88;;
66603;SDS011;53460;39.612;8.822;2022-07-21T15:23:57;2.25;;;1.00;;
66603;SDS011;53460;39.612;8.822;2022-07-21T15:26:22;1.27;;;0.90;;
66603;SDS011;53460;39.612;8.822;2022-07-21T15:28:48;3.95;;;1.10;;